Flight Track Log - Related Links

Times and Time Zones

All times are in EDT time to prevent confusion due to time zone crossing. See the CES2554 flight status page for this flight to view local times or setup timezone preferences in your user account.

Time Position Orientation Groundspeed Altitude Reporting Facility
EDT Latitude Longitude Course Direction KTS MPH feet Rate Location/Type
Thu 09:59:00 AM 34.0660 118.2141 227° Southwest  Level Estimated
Thu 10:00:00 AM 34.0096 118.1413 227° Southwest  Level Estimated
Thu 10:01:00 AM 33.9531 118.0686 227° Southwest  Level Estimated
Thu 10:02:00 AM 33.8966 117.9960 227° Southwest  Level Estimated
Thu 10:03:00 AM 33.8401 117.9235 227° Southwest  Level Estimated
Thu 10:04:00 AM 33.7835 117.8511 227° Southwest  Level Estimated
Thu 10:05:00 AM 33.7269 117.7787 227° Southwest  Level Estimated
Thu 10:06:00 AM 33.6703 117.7065 227° Southwest  Level Estimated
Thu 10:07:00 AM 33.6136 117.6344 227° Southwest  Level Estimated
Thu 10:08:00 AM 33.5568 117.5624 227° Southwest  Level Estimated
Thu 10:09:00 AM 33.5000 117.4904 227° Southwest  Level Estimated
Thu 10:10:00 AM 33.4432 117.4186 227° Southwest  Level Estimated
Thu 10:11:00 AM 33.3863 117.3469 227° Southwest  Level Estimated
Thu 10:12:00 AM 33.3294 117.2752 226° Southwest  Level Estimated
Thu 10:13:00 AM 33.2725 117.2037 226° Southwest  Level Estimated
Thu 10:14:00 AM 33.2155 117.1322 226° Southwest  Level Estimated
Thu 10:15:00 AM 33.1585 117.0608 226° Southwest  Level Estimated
Thu 10:16:00 AM 33.1014 116.9895 226° Southwest  Level Estimated
Thu 10:17:00 AM 33.0443 116.9184 226° Southwest  Level Estimated
Thu 10:18:00 AM 32.9871 116.8473 226° Southwest  Level Estimated
Thu 10:19:00 AM 32.9300 116.7763 226° Southwest  Level Estimated
Thu 10:20:00 AM 32.8727 116.7054 226° Southwest  Level Estimated
Thu 10:21:00 AM 32.8154 116.6345 226° Southwest  Level Estimated
Thu 10:22:00 AM 32.7581 116.5638 226° Southwest  Level Estimated
Thu 10:23:00 AM 32.7008 116.4932 226° Southwest  Level Estimated
Thu 10:24:00 AM 32.6434 116.4226 226° Southwest  Level Estimated
Thu 10:25:00 AM 32.5859 116.3522 226° Southwest  Level Estimated
Thu 10:26:00 AM 32.5285 116.2818 226° Southwest  Level Estimated
Thu 10:27:00 AM 32.4710 116.2115 226° Southwest  Level Estimated
Thu 10:28:00 AM 32.4134 116.1413 226° Southwest  Level Estimated
Thu 10:29:00 AM 32.3558 116.0713 226° Southwest  Level Estimated
Thu 10:30:00 AM 32.2982 116.0013 226° Southwest  Level Estimated
Thu 10:31:00 AM 32.2406 115.9313 226° Southwest  Level Estimated
Thu 10:32:00 AM 32.1828 115.8615 226° Southwest  Level Estimated
Thu 10:33:00 AM 32.1251 115.7918 226° Southwest  Level Estimated
Thu 10:34:00 AM 32.0673 115.7221 226° Southwest  Level Estimated
Thu 10:35:00 AM 32.0095 115.6525 226° Southwest  Level Estimated
Thu 10:36:00 AM 31.9517 115.5831 226° Southwest  Level Estimated
Thu 10:37:00 AM 31.8938 115.5137 226° Southwest  Level Estimated
Thu 10:38:00 AM 31.8358 115.4444 225° Southwest  Level Estimated
Thu 10:39:00 AM 31.7779 115.3752 225° Southwest  Level Estimated
Thu 10:40:00 AM 31.7199 115.3060 225° Southwest  Level Estimated
Thu 10:41:00 AM 31.6618 115.2370 225° Southwest  Level Estimated
Thu 10:42:00 AM 31.6037 115.1681 225° Southwest  Level Estimated
Thu 10:43:00 AM 31.5456 115.0992 225° Southwest  Level Estimated
Thu 10:44:00 AM 31.4875 115.0304 225° Southwest  Level Estimated
Thu 10:45:00 AM 31.4293 114.9617 225° Southwest  Level Estimated
Thu 10:46:00 AM 31.3710 114.8931 225° Southwest  Level Estimated
Thu 10:47:00 AM 31.3128 114.8246 225° Southwest  Level Estimated
Thu 10:48:00 AM 31.2545 114.7561 225° Southwest  Level Estimated
Thu 10:49:00 AM 31.1961 114.6878 225° Southwest  Level Estimated
Thu 10:50:00 AM 31.1378 114.6195 225° Southwest  Level Estimated
Thu 10:51:00 AM 31.0794 114.5513 225° Southwest  Level Estimated
Thu 10:52:00 AM 31.0209 114.4832 225° Southwest  Level Estimated
Thu 10:53:00 AM 30.9624 114.4152 225° Southwest  Level Estimated
Thu 10:54:00 AM 30.9039 114.3472 225° Southwest  Level Estimated
Thu 10:55:00 AM 30.8454 114.2794 225° Southwest  Level Estimated
Thu 10:56:00 AM 30.7868 114.2116 225° Southwest  Level Estimated
Thu 10:57:00 AM 30.7838 114.2081 225° Southwest  Level Estimated
Thu 10:58:00 AM 30.7838 114.2081 North  Level Estimated
Thu 10:59:00 AM 30.7838 114.2081 North  Level Estimated
Thu 11:00:00 AM 30.7838 114.2081 North  Level Estimated
Thu 11:01:00 AM 30.7838 114.2081 North  Level Estimated
Thu 11:02:00 AM 30.7838 114.2081 North  Level Estimated
Thu 11:03:00 AM 30.7838 114.2081 North  Level Estimated
Thu 11:04:00 AM 30.7838 114.2081 North  Level Estimated
Thu 11:05:00 AM 30.7838 114.2081 North  Level Estimated
Thu 11:06:00 AM 30.7838 114.2081 North  Level Estimated
Thu 11:07:00 AM 30.7838 114.2081 North  Level Estimated
Thu 11:08:00 AM 30.7838 114.2081 North  Level Estimated
Thu 11:09:00 AM 30.7838 114.2081 North  Level Estimated
Thu 11:10:00 AM 30.7838 114.2081 North  Level Estimated
Thu 11:11:00 AM 30.7838 114.2081 North  Level Estimated
Thu 11:12:00 AM 30.7838 114.2081 North  Level Estimated

Login

Don't have an account? Register now (free) for customized features, flight alerts, and more!